createdAt,value
2023-05-14T00:00:45.293Z,11.17
2023-05-14T00:03:12.033Z,11.14
2023-05-14T00:05:38.827Z,11.10
2023-05-14T00:08:06.138Z,11.08
2023-05-14T00:10:32.803Z,11.06
2023-05-14T00:12:59.390Z,11.04
2023-05-14T00:15:26.010Z,11.01
2023-05-14T00:17:52.467Z,11.00
2023-05-14T00:20:19.066Z,10.99
2023-05-14T00:22:45.592Z,10.97
2023-05-14T00:25:12.012Z,10.95
2023-05-14T00:27:38.425Z,10.94
2023-05-14T00:30:06.924Z,10.91
2023-05-14T00:32:33.613Z,10.88
2023-05-14T00:35:00.198Z,10.86
2023-05-14T00:37:26.812Z,10.84
2023-05-14T00:39:53.246Z,10.82
2023-05-14T00:42:19.737Z,10.78
2023-05-14T00:44:46.224Z,10.76
2023-05-14T00:47:13.307Z,10.72
2023-05-14T00:49:41.122Z,10.67
2023-05-14T00:52:08.961Z,10.63
2023-05-14T00:54:36.513Z,10.59
2023-05-14T00:57:04.952Z,10.55
2023-05-14T00:59:31.781Z,10.51
2023-05-14T01:01:58.874Z,10.47
2023-05-14T01:04:25.606Z,10.42
2023-05-14T01:07:14.797Z,10.38
2023-05-14T01:09:59.766Z,10.31
2023-05-14T01:12:27.135Z,10.26
2023-05-14T01:15:06.955Z,10.22
2023-05-14T01:17:46.185Z,10.17
2023-05-14T01:20:12.861Z,10.11
2023-05-14T01:22:39.502Z,10.08
2023-05-14T01:25:07.013Z,10.04
2023-05-14T01:27:52.320Z,9.98
2023-05-14T01:30:30.049Z,9.94
2023-05-14T01:33:00.535Z,9.91
2023-05-14T01:35:29.085Z,9.87
2023-05-14T01:37:57.621Z,9.84
2023-05-14T01:40:25.635Z,9.79
2023-05-14T01:42:53.332Z,9.74
2023-05-14T01:45:24.165Z,9.70
2023-05-14T01:47:51.668Z,9.65
2023-05-14T01:50:18.520Z,9.62
2023-05-14T01:52:45.356Z,9.57
2023-05-14T01:55:12.202Z,9.54
2023-05-14T01:57:39.017Z,9.51
2023-05-14T02:00:06.430Z,9.48
2023-05-14T02:02:32.919Z,9.45
2023-05-14T02:04:59.703Z,9.43
2023-05-14T02:07:26.533Z,9.43
2023-05-14T02:09:53.167Z,9.41
2023-05-14T02:12:19.791Z,9.38
2023-05-14T02:14:46.613Z,9.37
2023-05-14T02:17:15.878Z,9.34
2023-05-14T02:19:42.412Z,9.33
2023-05-14T02:22:08.945Z,9.31
2023-05-14T02:24:35.670Z,9.30
2023-05-14T02:27:02.247Z,9.29
2023-05-14T02:29:28.788Z,9.28
2023-05-14T02:31:56.546Z,9.27
2023-05-14T02:34:23.453Z,9.25
2023-05-14T02:36:50.044Z,9.24
2023-05-14T02:39:16.648Z,9.23
2023-05-14T02:41:43.069Z,9.21
2023-05-14T02:44:09.733Z,9.21
2023-05-14T02:46:36.244Z,9.20
2023-05-14T02:49:03.138Z,9.19
2023-05-14T02:51:29.633Z,9.17
2023-05-14T02:53:56.429Z,9.16
2023-05-14T02:56:23.007Z,9.14
2023-05-14T02:58:49.742Z,9.10
2023-05-14T03:01:16.612Z,9.09
2023-05-14T03:03:43.510Z,9.05
2023-05-14T03:06:10.627Z,9.04
2023-05-14T03:08:37.133Z,9.02
2023-05-14T03:11:03.823Z,9.00
2023-05-14T03:13:30.491Z,8.98
2023-05-14T03:15:57.309Z,8.97
2023-05-14T03:18:23.824Z,8.97
2023-05-14T03:20:50.564Z,8.96
2023-05-14T03:23:17.100Z,8.93
2023-05-14T03:25:43.837Z,8.90
2023-05-14T03:28:10.308Z,8.88
2023-05-14T03:30:36.935Z,8.85
2023-05-14T03:33:04.257Z,8.84
2023-05-14T03:35:31.483Z,8.82
2023-05-14T03:37:59.347Z,8.81
2023-05-14T03:40:26.276Z,8.80
2023-05-14T03:42:53.297Z,8.80
2023-05-14T03:45:20.081Z,8.81
2023-05-14T03:47:46.642Z,8.83
2023-05-14T03:50:13.229Z,8.85
2023-05-14T03:52:40.617Z,8.87
2023-05-14T03:55:07.785Z,8.87
2023-05-14T03:57:34.566Z,8.86
2023-05-14T04:00:01.163Z,8.82
2023-05-14T04:02:27.648Z,8.82
2023-05-14T04:04:54.430Z,8.84
2023-05-14T04:07:21.656Z,8.87
2023-05-14T04:09:48.156Z,8.90
2023-05-14T04:12:14.697Z,8.94
2023-05-14T04:14:41.255Z,8.99
2023-05-14T04:17:07.805Z,9.05
2023-05-14T04:19:34.318Z,9.11
2023-05-14T04:22:00.797Z,9.18
2023-05-14T04:24:27.522Z,9.25
2023-05-14T04:26:54.150Z,9.32
2023-05-14T04:29:20.664Z,9.40
2023-05-14T04:31:47.382Z,9.48
2023-05-14T04:34:14.380Z,9.57
2023-05-14T04:36:41.261Z,9.65
2023-05-14T04:39:09.466Z,9.72
2023-05-14T04:41:36.787Z,9.79
2023-05-14T04:44:04.018Z,9.89
2023-05-14T04:46:30.564Z,9.96
2023-05-14T04:48:57.660Z,10.05
2023-05-14T04:51:24.435Z,10.14
2023-05-14T04:53:51.008Z,10.23
2023-05-14T04:56:17.733Z,10.33
2023-05-14T04:58:44.576Z,10.43
2023-05-14T05:01:11.103Z,10.53
2023-05-14T05:03:37.973Z,10.63
2023-05-14T05:06:04.573Z,10.73
2023-05-14T05:08:31.208Z,10.85
2023-05-14T05:10:57.681Z,10.96
2023-05-14T05:13:24.172Z,11.05
2023-05-14T05:15:51.215Z,11.16
2023-05-14T05:18:17.746Z,11.29
2023-05-14T05:20:44.449Z,11.45
2023-05-14T05:23:11.307Z,11.56
2023-05-14T05:25:37.714Z,11.66
2023-05-14T05:28:04.444Z,11.78
2023-05-14T05:30:31.332Z,11.94
2023-05-14T05:32:58.112Z,12.10
2023-05-14T05:35:24.642Z,12.27
2023-05-14T05:37:51.184Z,12.41
2023-05-14T05:40:17.983Z,12.55
2023-05-14T05:42:44.438Z,12.67
2023-05-14T05:45:11.097Z,12.80
2023-05-14T05:47:37.559Z,12.95
2023-05-14T05:50:13.510Z,13.09
2023-05-14T05:52:39.994Z,13.25
2023-05-14T05:55:06.767Z,13.39
2023-05-14T05:57:33.215Z,13.54
2023-05-14T05:59:59.659Z,13.67
2023-05-14T06:02:26.171Z,13.76
2023-05-14T06:04:53.275Z,13.87
2023-05-14T06:07:19.822Z,14.00
2023-05-14T06:09:46.306Z,14.14
2023-05-14T06:12:12.714Z,14.28
2023-05-14T06:14:39.145Z,14.36
2023-05-14T06:17:05.845Z,14.43
2023-05-14T06:19:32.504Z,14.51
2023-05-14T06:21:58.884Z,14.56
2023-05-14T06:24:25.313Z,14.60
2023-05-14T06:26:51.717Z,14.63
2023-05-14T06:29:18.173Z,14.72
2023-05-14T06:31:44.628Z,14.84
2023-05-14T06:34:11.305Z,14.97
2023-05-14T06:36:37.748Z,15.10
2023-05-14T06:39:04.370Z,15.23
2023-05-14T06:41:30.847Z,15.35
2023-05-14T06:43:57.630Z,15.47
2023-05-14T06:46:24.039Z,15.58
2023-05-14T06:48:50.466Z,15.72
2023-05-14T06:51:16.898Z,15.89
2023-05-14T06:53:43.452Z,15.99
2023-05-14T06:56:09.873Z,16.06
2023-05-14T06:58:36.329Z,16.20
2023-05-14T07:01:02.791Z,16.30
2023-05-14T07:03:29.205Z,16.43
2023-05-14T07:05:55.686Z,16.52
2023-05-14T07:08:22.088Z,16.59
2023-05-14T07:10:48.556Z,16.71
2023-05-14T07:13:15.005Z,16.74
2023-05-14T07:15:41.492Z,16.85
2023-05-14T07:18:07.953Z,16.99
2023-05-14T07:20:34.520Z,17.09
2023-05-14T07:23:01.082Z,17.22
2023-05-14T07:25:28.187Z,17.33
2023-05-14T07:27:54.814Z,17.41
2023-05-14T07:30:21.534Z,17.48
2023-05-14T07:32:48.337Z,17.61
2023-05-14T07:35:14.865Z,17.71
2023-05-14T07:37:42.822Z,17.78
2023-05-14T07:40:09.904Z,17.77
2023-05-14T07:42:37.450Z,17.74
2023-05-14T07:45:05.071Z,17.84
2023-05-14T07:47:31.625Z,17.96
2023-05-14T07:49:58.250Z,18.11
2023-05-14T07:52:25.203Z,18.24
2023-05-14T07:54:52.345Z,18.40
2023-05-14T07:57:20.150Z,18.51
2023-05-14T07:59:47.893Z,18.61
2023-05-14T08:02:16.049Z,18.73
2023-05-14T08:04:42.951Z,18.90
2023-05-14T08:07:09.494Z,19.00
2023-05-14T08:09:35.895Z,19.08
2023-05-14T08:12:02.431Z,19.05
2023-05-14T08:14:28.872Z,19.12
2023-05-14T08:16:55.519Z,19.26
2023-05-14T08:19:24.443Z,19.41
2023-05-14T08:21:51.471Z,19.50
2023-05-14T08:24:18.909Z,19.58
2023-05-14T08:26:45.416Z,19.63
2023-05-14T08:29:13.952Z,19.69
2023-05-14T08:31:42.146Z,19.70
2023-05-14T08:34:08.652Z,19.74
2023-05-14T08:36:35.239Z,19.69
2023-05-14T08:39:01.768Z,19.63
2023-05-14T08:41:28.335Z,19.63
2023-05-14T08:44:05.460Z,19.66
2023-05-14T08:46:33.087Z,19.75
2023-05-14T08:49:17.293Z,19.87
2023-05-14T08:51:48.412Z,20.01
2023-05-14T08:54:22.587Z,20.03
2023-05-14T08:56:51.969Z,20.09
2023-05-14T08:59:19.092Z,20.19
2023-05-14T09:01:51.770Z,20.35
2023-05-14T09:04:21.243Z,20.47
2023-05-14T09:06:57.065Z,20.62
2023-05-14T09:09:23.953Z,20.71
2023-05-14T09:11:53.113Z,20.75
2023-05-14T09:14:20.928Z,20.84
2023-05-14T09:16:49.580Z,20.94
2023-05-14T09:19:19.524Z,21.07
2023-05-14T09:21:47.973Z,21.07
2023-05-14T09:24:21.396Z,21.03
2023-05-14T09:26:51.363Z,21.00
2023-05-14T09:29:18.060Z,21.11
2023-05-14T09:31:44.605Z,21.26
2023-05-14T09:34:11.338Z,21.37
2023-05-14T09:36:38.226Z,21.50
2023-05-14T09:39:05.121Z,21.67
2023-05-14T09:41:31.707Z,21.74
2023-05-14T09:43:58.586Z,21.79
2023-05-14T09:46:30.110Z,21.92
2023-05-14T09:48:57.098Z,22.12
2023-05-14T09:51:24.016Z,22.25
2023-05-14T09:53:53.233Z,22.25
2023-05-14T09:56:21.591Z,22.44
2023-05-14T09:58:48.412Z,22.65
2023-05-14T10:01:17.690Z,22.80
2023-05-14T10:03:45.011Z,22.94
2023-05-14T10:06:13.379Z,22.81
2023-05-14T10:08:44.480Z,22.78
2023-05-14T10:11:15.181Z,22.78
2023-05-14T10:13:46.616Z,23.02
2023-05-14T10:16:35.265Z,23.16
2023-05-14T10:19:09.604Z,23.34
2023-05-14T10:21:38.045Z,23.34
2023-05-14T10:24:06.010Z,23.50
2023-05-14T10:26:34.696Z,23.67
2023-05-14T10:29:01.374Z,23.71
2023-05-14T10:31:54.101Z,23.52
2023-05-14T10:34:38.231Z,23.37
2023-05-14T10:37:06.942Z,23.37
2023-05-14T10:39:43.531Z,23.44
2023-05-14T10:42:16.860Z,23.58
2023-05-14T10:44:49.208Z,23.80
2023-05-14T10:47:19.493Z,23.96
2023-05-14T10:49:49.116Z,24.16
2023-05-14T10:52:19.650Z,24.35
2023-05-14T10:54:51.082Z,24.60
2023-05-14T10:57:19.002Z,24.82
2023-05-14T10:59:47.548Z,24.92
2023-05-14T11:02:30.992Z,24.87
2023-05-14T11:05:03.897Z,24.93
2023-05-14T11:07:39.285Z,25.14
2023-05-14T11:10:11.331Z,25.26
2023-05-14T11:12:39.606Z,25.32
2023-05-14T11:15:11.782Z,25.43
2023-05-14T11:17:40.727Z,25.59
2023-05-14T11:20:08.810Z,25.71
2023-05-14T11:22:36.315Z,25.82
2023-05-14T11:25:03.631Z,25.87
2023-05-14T11:27:33.455Z,25.77
2023-05-14T11:30:01.040Z,25.68
2023-05-14T11:32:27.866Z,25.73
2023-05-14T11:34:54.756Z,25.79
2023-05-14T11:37:21.221Z,25.87
2023-05-14T11:39:55.462Z,25.84
2023-05-14T11:42:23.705Z,25.89
2023-05-14T11:44:52.085Z,25.93
2023-05-14T11:47:21.025Z,26.02
2023-05-14T11:49:48.577Z,26.10
2023-05-14T11:52:16.472Z,26.05
2023-05-14T11:54:44.494Z,25.88
2023-05-14T11:57:14.083Z,25.60
2023-05-14T11:59:41.200Z,25.43
2023-05-14T12:02:13.871Z,25.71
2023-05-14T12:04:42.308Z,26.09
2023-05-14T12:07:11.384Z,26.50
2023-05-14T12:09:44.189Z,26.75
2023-05-14T12:12:12.789Z,27.00
2023-05-14T12:14:42.767Z,27.38
2023-05-14T12:17:18.305Z,27.75
2023-05-14T12:19:46.771Z,28.05
2023-05-14T12:22:21.180Z,28.44
2023-05-14T12:24:58.901Z,28.70
2023-05-14T12:27:27.767Z,29.00
2023-05-14T12:30:20.699Z,29.28
2023-05-14T12:32:52.774Z,29.58
2023-05-14T12:35:21.435Z,29.93
2023-05-14T12:37:48.166Z,30.34
2023-05-14T12:40:14.930Z,30.71
2023-05-14T12:42:41.608Z,31.00
2023-05-14T12:45:08.754Z,31.18
2023-05-14T12:47:36.857Z,31.34
2023-05-14T12:50:04.128Z,31.79
2023-05-14T12:55:01.468Z,33.54
2023-05-14T12:57:29.130Z,34.22
2023-05-14T12:59:56.063Z,35.05
2023-05-14T13:02:22.731Z,35.65
2023-05-14T13:04:49.172Z,36.15
2023-05-14T13:07:15.781Z,36.60
2023-05-14T13:09:42.491Z,36.84
2023-05-14T13:12:09.592Z,36.72
2023-05-14T13:14:36.449Z,36.99
2023-05-14T13:17:04.950Z,37.41
2023-05-14T13:19:31.679Z,37.82
2023-05-14T13:21:58.116Z,38.13
2023-05-14T13:24:25.204Z,38.57
2023-05-14T13:26:51.819Z,39.09
2023-05-14T13:29:18.334Z,39.62
2023-05-14T13:31:45.127Z,39.98
2023-05-14T13:34:13.011Z,39.75
2023-05-14T13:36:40.670Z,40.14
2023-05-14T13:39:07.418Z,40.77
2023-05-14T13:41:35.740Z,40.88
2023-05-14T13:44:02.611Z,39.74
2023-05-14T13:46:29.437Z,37.98
2023-05-14T13:48:55.997Z,36.22
2023-05-14T13:51:22.997Z,34.62
2023-05-14T13:53:49.969Z,33.06
2023-05-14T13:56:16.575Z,31.58
2023-05-14T13:58:43.255Z,30.43
2023-05-14T14:01:09.969Z,29.41
2023-05-14T14:03:36.616Z,28.37
2023-05-14T14:06:03.352Z,27.49
2023-05-14T14:08:31.085Z,26.72
2023-05-14T14:10:57.840Z,26.14
2023-05-14T14:13:24.593Z,25.60
2023-05-14T14:15:51.610Z,25.09
2023-05-14T14:18:18.337Z,24.69
2023-05-14T14:20:45.344Z,24.38
2023-05-14T14:23:12.025Z,24.56
2023-05-14T14:25:38.630Z,24.60
2023-05-14T14:28:05.406Z,24.60
2023-05-14T14:30:32.979Z,24.41
2023-05-14T14:33:01.264Z,24.20
2023-05-14T14:35:28.061Z,23.90
2023-05-14T14:37:55.711Z,23.46
2023-05-14T14:40:23.951Z,22.95
2023-05-14T14:42:50.658Z,22.51
2023-05-14T14:45:17.380Z,22.22
2023-05-14T14:47:46.100Z,22.02
2023-05-14T14:50:13.403Z,21.88
2023-05-14T14:52:45.482Z,21.73
2023-05-14T14:55:12.558Z,21.66
2023-05-14T14:57:39.295Z,21.61
2023-05-14T15:00:07.020Z,21.53
2023-05-14T15:02:33.807Z,21.47
2023-05-14T15:05:00.424Z,21.48
2023-05-14T15:07:27.133Z,21.46
2023-05-14T15:09:53.744Z,21.33
2023-05-14T15:12:20.380Z,21.00
2023-05-14T15:14:47.067Z,20.68
2023-05-14T15:17:13.874Z,20.48
2023-05-14T15:19:40.433Z,20.38
2023-05-14T15:22:07.420Z,20.28
2023-05-14T15:24:33.889Z,20.24
2023-05-14T15:27:00.727Z,20.29
2023-05-14T15:29:28.633Z,20.40
2023-05-14T15:31:55.463Z,20.52
2023-05-14T15:34:22.211Z,20.59
2023-05-14T15:36:48.945Z,20.73
2023-05-14T15:39:15.431Z,20.92
2023-05-14T15:41:42.044Z,21.14
2023-05-14T15:44:08.839Z,21.37
2023-05-14T15:46:35.650Z,21.87
2023-05-14T15:49:02.366Z,23.31
2023-05-14T15:51:29.134Z,24.95
2023-05-14T15:53:55.761Z,26.68
2023-05-14T15:56:22.885Z,27.87
2023-05-14T15:58:50.086Z,28.36
2023-05-14T16:01:16.778Z,29.16
2023-05-14T16:03:43.683Z,30.15
2023-05-14T16:06:11.579Z,30.77
2023-05-14T16:08:38.530Z,31.18
2023-05-14T16:11:06.143Z,31.59
2023-05-14T16:13:32.777Z,32.11
2023-05-14T16:15:59.843Z,32.15
2023-05-14T16:18:26.763Z,31.65
2023-05-14T16:20:53.598Z,31.31
2023-05-14T16:23:20.134Z,31.26
2023-05-14T16:25:46.676Z,31.40
2023-05-14T16:28:13.595Z,31.23
2023-05-14T16:30:40.127Z,30.67
2023-05-14T16:33:06.769Z,30.12
2023-05-14T16:35:33.391Z,29.58
2023-05-14T16:38:00.166Z,28.99
2023-05-14T16:40:26.818Z,28.62
2023-05-14T16:42:53.631Z,28.23
2023-05-14T16:45:20.274Z,28.02
2023-05-14T16:47:46.808Z,28.13
2023-05-14T16:50:13.413Z,28.46
2023-05-14T16:52:40.043Z,28.67
2023-05-14T16:55:07.431Z,28.75
2023-05-14T16:57:34.689Z,28.76
2023-05-14T17:00:01.349Z,28.59
2023-05-14T17:02:28.119Z,28.34
2023-05-14T17:04:55.240Z,28.16
2023-05-14T17:07:21.847Z,28.15
2023-05-14T17:09:48.649Z,28.33
2023-05-14T17:12:15.098Z,28.71
2023-05-14T17:14:41.463Z,29.18
2023-05-14T17:17:07.881Z,29.75
2023-05-14T17:19:34.340Z,30.16
2023-05-14T17:22:00.846Z,30.52
2023-05-14T17:24:27.290Z,30.78
2023-05-14T17:26:53.680Z,31.13
2023-05-14T17:29:20.298Z,31.34
2023-05-14T17:31:48.260Z,31.57
2023-05-14T17:34:14.760Z,31.57
2023-05-14T17:36:41.463Z,31.59
2023-05-14T17:39:07.829Z,31.65
2023-05-14T17:41:34.221Z,31.51
2023-05-14T17:44:00.685Z,31.32
2023-05-14T17:46:27.182Z,31.19
2023-05-14T17:48:53.696Z,30.83
2023-05-14T17:51:20.124Z,30.49
2023-05-14T17:53:46.584Z,29.98
2023-05-14T17:56:12.987Z,29.28
2023-05-14T17:58:39.404Z,28.64
2023-05-14T18:01:06.107Z,28.01
2023-05-14T18:03:32.740Z,27.45
2023-05-14T18:05:59.479Z,26.88
2023-05-14T18:08:25.908Z,26.47
2023-05-14T18:10:52.345Z,26.08
2023-05-14T18:13:18.913Z,25.79
2023-05-14T18:15:45.460Z,25.72
2023-05-14T18:18:12.288Z,25.63
2023-05-14T18:20:38.826Z,25.33
2023-05-14T18:23:05.256Z,25.08
2023-05-14T18:25:31.676Z,24.68
2023-05-14T18:27:58.316Z,24.25
2023-05-14T18:30:24.807Z,23.86
2023-05-14T18:32:51.431Z,23.45
2023-05-14T18:35:17.954Z,23.04
2023-05-14T18:37:44.555Z,22.64
2023-05-14T18:40:15.587Z,22.31
2023-05-14T18:42:43.547Z,22.03
2023-05-14T18:45:10.462Z,21.77
2023-05-14T18:47:37.193Z,21.51
2023-05-14T18:50:04.842Z,21.25
2023-05-14T18:52:32.396Z,21.01
2023-05-14T18:54:58.908Z,20.76
2023-05-14T18:57:34.793Z,20.53
2023-05-14T19:00:02.058Z,20.28
2023-05-14T19:02:28.971Z,20.05
2023-05-14T19:04:56.090Z,19.80
2023-05-14T19:07:23.244Z,19.56
2023-05-14T19:09:49.820Z,19.33
2023-05-14T19:12:16.478Z,19.11
2023-05-14T19:14:43.036Z,18.90
2023-05-14T19:17:09.658Z,18.70
2023-05-14T19:19:36.545Z,18.51
2023-05-14T19:22:03.151Z,18.31
2023-05-14T19:24:30.263Z,18.13
2023-05-14T19:26:57.001Z,17.98
2023-05-14T19:29:23.556Z,17.85
2023-05-14T19:31:50.094Z,17.71
2023-05-14T19:34:16.754Z,17.56
2023-05-14T19:36:43.241Z,17.41
2023-05-14T19:39:09.828Z,17.27
2023-05-14T19:41:36.326Z,17.13
2023-05-14T19:44:03.682Z,16.98
2023-05-14T19:46:30.246Z,16.84
2023-05-14T19:48:56.802Z,16.70
2023-05-14T19:51:23.220Z,16.56
2023-05-14T19:53:49.709Z,16.43
2023-05-14T19:56:16.496Z,16.30
2023-05-14T19:58:44.212Z,16.17
2023-05-14T20:01:12.099Z,16.04
2023-05-14T20:03:38.967Z,15.92
2023-05-14T20:06:07.114Z,15.78
2023-05-14T20:08:33.879Z,15.64
2023-05-14T20:11:00.349Z,15.54
2023-05-14T20:13:26.863Z,15.43
2023-05-14T20:15:55.073Z,15.33
2023-05-14T20:18:21.855Z,15.19
2023-05-14T20:20:49.002Z,15.05
2023-05-14T20:23:15.650Z,14.93
2023-05-14T20:25:43.094Z,14.83
2023-05-14T20:28:10.484Z,14.73
2023-05-14T20:30:36.966Z,14.65
2023-05-14T20:33:04.102Z,14.55
2023-05-14T20:35:31.082Z,14.45
2023-05-14T20:37:57.585Z,14.36
2023-05-14T20:40:24.656Z,14.27
2023-05-14T20:42:51.536Z,14.18
2023-05-14T20:45:18.092Z,14.11
2023-05-14T20:47:44.911Z,14.04
2023-05-14T20:50:11.785Z,13.99
2023-05-14T20:52:38.417Z,13.94
2023-05-14T20:55:07.663Z,13.89
2023-05-14T20:57:34.239Z,13.83
2023-05-14T21:00:02.219Z,13.77
2023-05-14T21:02:28.905Z,13.71
2023-05-14T21:04:55.504Z,13.66
2023-05-14T21:07:22.066Z,13.61
2023-05-14T21:09:52.395Z,13.56
2023-05-14T21:12:19.437Z,13.51
2023-05-14T21:14:46.016Z,13.47
2023-05-14T21:17:12.923Z,13.43
2023-05-14T21:19:39.616Z,13.39
2023-05-14T21:22:07.106Z,13.35
2023-05-14T21:24:33.680Z,13.32
2023-05-14T21:27:00.358Z,13.29
2023-05-14T21:29:26.933Z,13.25
2023-05-14T21:31:53.361Z,13.21
2023-05-14T21:34:19.882Z,13.19
2023-05-14T21:36:46.576Z,13.15
2023-05-14T21:39:13.772Z,13.11
2023-05-14T21:41:40.275Z,13.08
2023-05-14T21:44:06.690Z,13.03
2023-05-14T21:46:33.797Z,12.98
2023-05-14T21:49:00.276Z,12.95
2023-05-14T21:51:26.926Z,12.92
2023-05-14T21:53:53.347Z,12.88
2023-05-14T21:56:20.072Z,12.83
2023-05-14T21:58:46.535Z,12.78
2023-05-14T22:01:13.068Z,12.74
2023-05-14T22:03:39.498Z,12.70
2023-05-14T22:06:06.286Z,12.65
2023-05-14T22:08:32.768Z,12.59
2023-05-14T22:10:59.411Z,12.53
2023-05-14T22:13:25.937Z,12.45
2023-05-14T22:16:01.476Z,12.37
2023-05-14T22:18:36.510Z,12.31
2023-05-14T22:21:03.337Z,12.23
2023-05-14T22:23:29.822Z,12.17
2023-05-14T22:25:56.444Z,12.10
2023-05-14T22:28:23.007Z,12.02
2023-05-14T22:30:49.567Z,11.96
2023-05-14T22:33:16.521Z,11.91
2023-05-14T22:35:42.993Z,11.87
2023-05-14T22:38:09.490Z,11.84
2023-05-14T22:40:36.453Z,11.83
2023-05-14T22:43:03.095Z,11.80
2023-05-14T22:45:30.353Z,11.76
2023-05-14T22:47:56.975Z,11.73
2023-05-14T22:50:23.645Z,11.69
2023-05-14T22:52:50.246Z,11.67
2023-05-14T22:55:16.677Z,11.63
2023-05-14T22:57:43.352Z,11.59
2023-05-14T23:00:11.223Z,11.56
2023-05-14T23:02:37.983Z,11.52
2023-05-14T23:05:05.418Z,11.49
2023-05-14T23:07:32.207Z,11.44
2023-05-14T23:09:59.007Z,11.40
2023-05-14T23:12:25.954Z,11.37
2023-05-14T23:14:52.626Z,11.34
2023-05-14T23:17:19.233Z,11.30
2023-05-14T23:19:45.870Z,11.28
2023-05-14T23:22:12.584Z,11.25
2023-05-14T23:24:39.087Z,11.22
2023-05-14T23:27:05.769Z,11.18
2023-05-14T23:29:32.510Z,11.14
2023-05-14T23:31:59.238Z,11.10
2023-05-14T23:34:25.886Z,11.08
2023-05-14T23:36:52.878Z,11.05
2023-05-14T23:39:19.683Z,11.02
2023-05-14T23:41:46.327Z,11.00
2023-05-14T23:44:12.981Z,10.99
2023-05-14T23:46:39.624Z,10.98
2023-05-14T23:49:06.355Z,10.97
2023-05-14T23:51:32.890Z,10.96
2023-05-14T23:54:00.119Z,10.94
2023-05-14T23:56:29.179Z,10.94
2023-05-14T23:58:56.170Z,10.93
